createdAt,value
2023-03-26T00:00:58.255Z,40.60
2023-03-26T00:03:28.884Z,22.40
2023-03-26T00:06:11.921Z,24.63
2023-03-26T00:08:44.225Z,25.35
2023-03-26T00:11:17.121Z,27.20
2023-03-26T00:13:49.121Z,21.50
2023-03-26T00:16:22.358Z,26.38
2023-03-26T00:18:53.990Z,18.83
2023-03-26T00:21:31.840Z,24.80
2023-03-26T00:24:06.844Z,23.00
2023-03-26T00:26:55.686Z,21.05
2023-03-26T00:29:27.032Z,17.60
2023-03-26T00:32:15.972Z,23.95
2023-03-26T00:34:48.561Z,25.17
2023-03-26T00:37:18.793Z,29.30
2023-03-26T00:42:38.061Z,21.40
2023-03-26T00:47:43.530Z,20.10
2023-03-26T00:50:17.793Z,19.92
2023-03-26T00:52:49.835Z,33.97
2023-03-26T00:55:20.193Z,25.42
2023-03-26T00:57:50.362Z,23.52
2023-03-26T01:00:42.349Z,23.95
2023-03-26T01:03:27.564Z,28.20
2023-03-26T01:06:13.575Z,23.95
2023-03-26T01:08:49.538Z,33.17
2023-03-26T01:11:26.264Z,23.63
2023-03-26T01:14:02.634Z,22.13
2023-03-26T01:16:52.401Z,22.38
2023-03-26T01:19:50.416Z,24.85
2023-03-26T01:22:24.546Z,27.73
2023-03-26T01:24:55.820Z,21.23
2023-03-26T01:27:57.118Z,25.02
2023-03-26T01:30:39.556Z,24.50
2023-03-26T01:33:32.362Z,20.05
2023-03-26T01:36:34.772Z,23.38
2023-03-26T01:39:33.262Z,20.70
2023-03-26T01:42:18.592Z,23.13
2023-03-26T01:45:00.866Z,23.48
2023-03-26T01:47:32.299Z,23.38
2023-03-26T01:50:02.633Z,21.55
2023-03-26T01:52:33.988Z,25.52
2023-03-26T01:55:05.462Z,25.00
2023-03-26T01:58:01.493Z,27.27
2023-03-26T02:00:33.258Z,23.52
2023-03-26T02:03:22.051Z,23.63
2023-03-26T02:05:58.718Z,26.58
2023-03-26T02:08:43.708Z,26.10
2023-03-26T02:11:19.978Z,24.75
2023-03-26T02:13:50.586Z,27.10
2023-03-26T02:16:23.064Z,24.58
2023-03-26T02:18:58.202Z,19.42
2023-03-26T02:21:29.537Z,21.20
2023-03-26T02:24:17.828Z,22.70
2023-03-26T02:26:49.597Z,26.20
2023-03-26T02:29:22.757Z,24.87
2023-03-26T02:31:53.426Z,22.73
2023-03-26T02:34:45.553Z,24.95
2023-03-26T02:37:15.932Z,25.75
2023-03-26T02:39:48.710Z,23.77
2023-03-26T02:42:28.705Z,24.70
2023-03-26T02:44:59.328Z,27.45
2023-03-26T02:47:48.776Z,24.55
2023-03-26T02:50:57.804Z,23.30
2023-03-26T02:53:53.526Z,23.45
2023-03-26T02:56:30.630Z,22.60
2023-03-26T02:59:26.764Z,24.45
2023-03-26T03:02:21.369Z,23.27
2023-03-26T03:04:51.917Z,24.85
2023-03-26T03:07:22.751Z,23.23
2023-03-26T03:12:43.985Z,20.73
2023-03-26T03:18:03.195Z,24.40
2023-03-26T03:20:37.531Z,22.75
2023-03-26T03:23:07.814Z,24.38
2023-03-26T03:25:38.228Z,21.03
2023-03-26T03:30:59.938Z,26.30
2023-03-26T03:33:50.437Z,28.58
2023-03-26T03:36:24.999Z,24.60
2023-03-26T03:41:56.032Z,24.70
2023-03-26T03:44:26.445Z,24.63
2023-03-26T03:46:59.365Z,23.58
2023-03-26T03:49:29.776Z,23.80
2023-03-26T03:52:01.057Z,25.80
2023-03-26T03:54:39.031Z,22.05
2023-03-26T03:57:24.458Z,24.13
2023-03-26T04:03:08.802Z,28.08
2023-03-26T04:05:39.223Z,29.50
2023-03-26T04:08:10.242Z,43.58
2023-03-26T04:10:58.509Z,38.40
2023-03-26T04:14:02.808Z,46.92
2023-03-26T04:16:54.040Z,71.07
2023-03-26T04:19:25.501Z,56.90
2023-03-26T04:21:56.861Z,146.98
2023-03-26T04:27:30.638Z,103.53
2023-03-26T04:30:30.841Z,40.85
2023-03-26T04:33:08.943Z,390.08
2023-03-26T04:35:44.003Z,561.03
2023-03-26T04:38:19.103Z,419.27
2023-03-26T04:40:54.475Z,674.50
2023-03-26T04:43:49.448Z,688.33
2023-03-26T04:46:28.743Z,550.10
2023-03-26T04:49:10.768Z,393.88
2023-03-26T04:51:44.169Z,87.03
2023-03-26T04:54:32.730Z,590.95
2023-03-26T05:00:21.048Z,494.98
2023-03-26T05:02:58.197Z,100.25
2023-03-26T05:05:30.686Z,218.00
2023-03-26T05:08:19.141Z,182.02
2023-03-26T05:11:13.632Z,360.08
2023-03-26T05:13:45.251Z,452.52
2023-03-26T05:16:16.773Z,95.97
2023-03-26T05:18:57.284Z,494.77
2023-03-26T05:21:33.925Z,630.10
2023-03-26T05:24:22.594Z,615.08
2023-03-26T05:27:11.623Z,411.02
2023-03-26T05:29:42.303Z,81.25
2023-03-26T05:32:13.669Z,441.33
2023-03-26T05:37:14.137Z,498.80
2023-03-26T05:40:02.664Z,534.28
2023-03-26T05:42:45.833Z,649.83
2023-03-26T05:45:45.428Z,505.85
2023-03-26T05:48:27.870Z,627.03
2023-03-26T05:51:00.010Z,680.50
2023-03-26T05:53:33.759Z,391.63
2023-03-26T05:58:18.889Z,35.00
2023-03-26T06:01:10.972Z,34.47
2023-03-26T06:04:04.545Z,22.60
2023-03-26T06:06:41.805Z,149.55
2023-03-26T06:09:14.383Z,38.38
2023-03-26T06:11:45.840Z,36.13
2023-03-26T06:14:16.295Z,43.05
2023-03-26T06:17:07.171Z,116.05
2023-03-26T06:19:57.202Z,51.22
2023-03-26T06:22:36.885Z,47.53
2023-03-26T06:25:25.255Z,34.38
2023-03-26T06:28:18.335Z,22.00
2023-03-26T06:36:57.775Z,32.42
2023-03-26T06:39:29.378Z,323.40
2023-03-26T06:45:01.799Z,278.25
2023-03-26T06:47:37.807Z,460.60
2023-03-26T06:50:25.975Z,321.58
2023-03-26T06:53:15.694Z,391.75
2023-03-26T06:56:10.078Z,363.95
2023-03-26T06:58:52.481Z,292.95
2023-03-26T07:01:41.185Z,230.95
2023-03-26T07:04:30.726Z,42.45
2023-03-26T07:07:20.613Z,66.68
2023-03-26T07:10:14.335Z,78.78
2023-03-26T07:13:11.057Z,56.08
2023-03-26T07:16:01.426Z,50.20
2023-03-26T07:18:51.656Z,445.33
2023-03-26T07:21:25.791Z,587.50
2023-03-26T07:23:56.753Z,644.30
2023-03-26T07:30:01.076Z,115.57
2023-03-26T07:32:51.903Z,533.17
2023-03-26T07:38:53.204Z,125.15
2023-03-26T07:41:55.143Z,44.92
2023-03-26T07:44:43.953Z,30.85
2023-03-26T07:47:38.065Z,34.50
2023-03-26T07:50:22.460Z,27.65
2023-03-26T07:53:01.761Z,41.08
2023-03-26T07:56:14.711Z,46.67
2023-03-26T07:59:13.561Z,30.42
2023-03-26T08:02:43.576Z,31.70
2023-03-26T08:06:02.209Z,27.30
2023-03-26T08:12:57.888Z,22.52
2023-03-26T08:16:09.047Z,22.23
2023-03-26T08:18:58.836Z,29.73
2023-03-26T08:21:34.224Z,30.10
2023-03-26T08:24:25.357Z,24.95
2023-03-26T08:30:00.616Z,28.85
2023-03-26T08:32:32.268Z,25.40
2023-03-26T08:35:03.576Z,31.70
2023-03-26T08:37:34.233Z,30.75
2023-03-26T08:40:04.755Z,26.00
2023-03-26T08:43:30.267Z,42.13
2023-03-26T08:46:21.944Z,35.05
2023-03-26T08:49:23.308Z,27.42
2023-03-26T08:52:32.779Z,29.30
2023-03-26T08:55:38.785Z,27.67
2023-03-26T08:58:30.112Z,40.47
2023-03-26T09:01:24.651Z,230.30
2023-03-26T09:04:23.717Z,40.15
2023-03-26T09:07:30.678Z,140.48
2023-03-26T09:10:22.631Z,444.25
2023-03-26T09:13:13.906Z,469.85
2023-03-26T09:15:54.184Z,204.02
2023-03-26T09:18:36.406Z,499.37
2023-03-26T09:21:38.586Z,41.30
2023-03-26T09:24:45.037Z,215.18
2023-03-26T09:28:18.607Z,52.78
2023-03-26T09:31:22.941Z,204.77
2023-03-26T09:33:59.139Z,696.33
2023-03-26T09:37:00.153Z,204.60
2023-03-26T09:39:56.136Z,37.30
2023-03-26T09:42:49.106Z,87.72
2023-03-26T09:45:47.897Z,427.35
2023-03-26T09:48:50.801Z,239.68
2023-03-26T09:51:25.120Z,826.78
2023-03-26T09:54:04.856Z,506.00
2023-03-26T09:57:00.086Z,162.90
2023-03-26T09:59:55.782Z,197.27
2023-03-26T10:02:54.628Z,236.10
2023-03-26T10:09:36.433Z,706.70
2023-03-26T10:15:00.835Z,87.25
2023-03-26T10:18:27.368Z,97.55
2023-03-26T10:20:59.938Z,211.02
2023-03-26T10:23:50.659Z,46.43
2023-03-26T10:26:39.352Z,209.53
2023-03-26T10:29:46.584Z,290.13
2023-03-26T10:32:36.082Z,50.42
2023-03-26T10:35:22.804Z,57.08
2023-03-26T10:38:21.265Z,50.80
2023-03-26T10:41:16.071Z,93.95
2023-03-26T10:44:09.163Z,233.48
2023-03-26T10:47:08.793Z,61.67
2023-03-26T10:49:56.522Z,42.88
2023-03-26T10:52:32.082Z,325.90
2023-03-26T10:55:19.330Z,459.40
2023-03-26T10:58:48.849Z,481.85
2023-03-26T11:01:32.529Z,542.80
2023-03-26T11:04:28.685Z,68.50
2023-03-26T11:07:22.795Z,359.40
2023-03-26T11:10:05.828Z,505.40
2023-03-26T11:12:43.250Z,686.78
2023-03-26T11:15:54.823Z,559.38
2023-03-26T11:21:24.231Z,644.47
2023-03-26T11:27:19.065Z,144.20
2023-03-26T11:30:43.010Z,555.13
2023-03-26T11:33:21.364Z,689.67
2023-03-26T11:35:54.859Z,236.25
2023-03-26T11:38:28.768Z,27.58
2023-03-26T11:41:29.504Z,37.53
2023-03-26T11:44:45.955Z,141.35
2023-03-26T11:47:21.609Z,170.98
2023-03-26T11:49:53.845Z,278.42
2023-03-26T11:52:24.613Z,154.00
2023-03-26T11:54:55.391Z,310.42
2023-03-26T11:57:31.770Z,226.65
2023-03-26T12:00:23.533Z,91.55
2023-03-26T12:02:59.827Z,687.22
2023-03-26T12:05:38.978Z,705.63
2023-03-26T12:08:23.993Z,318.00
2023-03-26T12:14:04.725Z,112.35
2023-03-26T12:16:35.065Z,367.20
2023-03-26T12:19:22.118Z,45.17
2023-03-26T12:21:56.281Z,38.55
2023-03-26T12:24:30.581Z,253.60
2023-03-26T12:27:33.248Z,77.20
2023-03-26T12:30:36.264Z,128.02
2023-03-26T12:33:17.364Z,157.13
2023-03-26T12:35:48.000Z,83.43
2023-03-26T12:38:38.618Z,35.38
2023-03-26T12:44:52.934Z,91.18
2023-03-26T12:47:58.314Z,30.63
2023-03-26T12:50:34.564Z,96.25
2023-03-26T12:53:23.402Z,27.60
2023-03-26T12:56:03.976Z,137.50
2023-03-26T12:59:20.772Z,76.18
2023-03-26T13:03:44.095Z,14.20
2023-03-26T13:06:24.063Z,20.67
2023-03-26T13:09:15.450Z,17.73
2023-03-26T13:12:09.631Z,15.55
2023-03-26T13:14:45.617Z,14.43
2023-03-26T13:17:25.134Z,17.35
2023-03-26T13:20:01.206Z,15.35
2023-03-26T13:23:29.048Z,16.92
2023-03-26T13:26:40.892Z,15.68
2023-03-26T13:29:37.214Z,14.27
2023-03-26T13:32:42.821Z,15.55
2023-03-26T13:35:34.548Z,18.65
2023-03-26T13:38:42.262Z,17.00
2023-03-26T13:42:02.381Z,21.95
2023-03-26T13:44:51.368Z,17.30
2023-03-26T13:50:36.816Z,17.15
2023-03-26T13:53:21.840Z,15.77
2023-03-26T13:55:57.077Z,18.05
2023-03-26T13:58:44.516Z,15.40
2023-03-26T14:01:22.775Z,19.50
2023-03-26T14:04:52.172Z,18.45
2023-03-26T14:07:55.810Z,15.23
2023-03-26T14:10:37.799Z,19.38
2023-03-26T14:13:32.100Z,15.85
2023-03-26T14:16:17.353Z,17.40
2023-03-26T14:18:47.664Z,14.07
2023-03-26T14:21:28.147Z,21.15
2023-03-26T14:24:22.379Z,15.88
2023-03-26T14:27:24.264Z,19.67
2023-03-26T14:30:03.754Z,14.88
2023-03-26T14:32:55.772Z,13.98
2023-03-26T14:36:00.018Z,14.73
2023-03-26T14:38:35.933Z,15.73
2023-03-26T14:41:32.312Z,13.07
2023-03-26T14:44:47.631Z,14.88
2023-03-26T14:47:25.021Z,16.13
2023-03-26T14:50:18.129Z,13.30
2023-03-26T14:53:00.854Z,12.90
2023-03-26T14:55:50.944Z,12.73
2023-03-26T14:58:26.849Z,13.90
2023-03-26T15:01:27.606Z,15.85
2023-03-26T15:04:27.829Z,14.77
2023-03-26T15:07:07.728Z,14.98
2023-03-26T15:10:02.622Z,15.95
2023-03-26T15:12:57.266Z,13.18
2023-03-26T15:19:40.586Z,13.15
2023-03-26T15:22:47.975Z,15.77
2023-03-26T15:25:54.566Z,13.57
2023-03-26T15:29:06.578Z,13.75
2023-03-26T15:32:02.738Z,14.07
2023-03-26T15:35:18.034Z,15.02
2023-03-26T15:38:03.210Z,14.75
2023-03-26T15:41:23.420Z,14.40
2023-03-26T15:44:23.304Z,12.70
2023-03-26T15:47:19.867Z,14.35
2023-03-26T15:50:21.848Z,13.57
2023-03-26T15:52:59.571Z,13.65
2023-03-26T15:56:22.725Z,13.82
2023-03-26T15:59:29.529Z,14.50
2023-03-26T16:02:24.265Z,14.88
2023-03-26T16:04:59.784Z,15.88
2023-03-26T16:07:51.090Z,15.35
2023-03-26T16:10:54.986Z,17.08
2023-03-26T16:13:30.193Z,12.63
2023-03-26T16:16:09.392Z,13.20
2023-03-26T16:18:43.289Z,12.23
2023-03-26T16:21:36.808Z,15.27
2023-03-26T16:24:10.736Z,14.02
2023-03-26T16:26:47.073Z,12.50
2023-03-26T16:29:20.560Z,11.98
2023-03-26T16:32:30.918Z,13.25
2023-03-26T16:35:19.518Z,11.55
2023-03-26T16:38:13.980Z,14.80
2023-03-26T16:41:20.672Z,13.73
2023-03-26T16:44:17.857Z,12.50
2023-03-26T16:47:23.398Z,15.23
2023-03-26T16:50:22.997Z,13.82
2023-03-26T16:53:44.949Z,12.30
2023-03-26T16:56:15.595Z,12.48
2023-03-26T16:58:59.475Z,12.43
2023-03-26T17:01:49.405Z,13.73
2023-03-26T17:04:28.374Z,12.60
2023-03-26T17:07:22.761Z,12.02
2023-03-26T17:10:04.201Z,11.98
2023-03-26T17:13:13.272Z,12.10
2023-03-26T17:15:55.770Z,12.27
2023-03-26T17:18:38.950Z,12.55
2023-03-26T17:21:12.024Z,12.73
2023-03-26T17:23:54.399Z,12.70
2023-03-26T17:26:46.985Z,15.13
2023-03-26T17:37:53.376Z,13.02
2023-03-26T17:40:47.669Z,13.77
2023-03-26T17:43:38.751Z,15.18
2023-03-26T17:46:27.671Z,12.63
2023-03-26T17:49:20.775Z,15.68
2023-03-26T17:52:24.107Z,12.93
2023-03-26T17:54:58.948Z,12.95
2023-03-26T17:57:54.839Z,14.18
2023-03-26T18:00:31.717Z,12.77
2023-03-26T18:03:07.319Z,14.52
2023-03-26T18:05:42.826Z,13.32
2023-03-26T18:08:33.838Z,12.43
2023-03-26T18:11:22.390Z,12.30
2023-03-26T18:14:13.569Z,14.63
2023-03-26T18:16:48.582Z,12.43
2023-03-26T18:19:21.612Z,12.05
2023-03-26T18:21:59.165Z,12.32
2023-03-26T18:24:34.211Z,12.95
2023-03-26T18:27:13.045Z,12.20
2023-03-26T18:30:02.690Z,13.30
2023-03-26T18:32:35.816Z,13.75
2023-03-26T18:35:24.707Z,12.75
2023-03-26T18:38:04.065Z,14.90
2023-03-26T18:40:44.017Z,12.30
2023-03-26T18:43:28.624Z,13.55
2023-03-26T18:46:04.892Z,12.07
2023-03-26T18:48:35.725Z,13.80
2023-03-26T18:51:08.333Z,12.37
2023-03-26T18:53:43.821Z,12.23
2023-03-26T18:56:36.128Z,14.15
2023-03-26T18:59:35.057Z,12.88
2023-03-26T19:02:13.328Z,13.57
2023-03-26T19:04:47.029Z,12.45
2023-03-26T19:07:29.019Z,12.68
2023-03-26T19:09:59.534Z,13.20
2023-03-26T19:12:36.060Z,12.40
2023-03-26T19:15:13.976Z,12.15
2023-03-26T19:17:58.223Z,12.95
2023-03-26T19:20:35.950Z,14.18
2023-03-26T19:23:07.932Z,13.27
2023-03-26T19:25:46.543Z,12.70
2023-03-26T19:28:20.364Z,14.18
2023-03-26T19:30:56.195Z,12.95
2023-03-26T19:33:35.085Z,12.13
2023-03-26T19:36:20.616Z,13.43
2023-03-26T19:39:24.191Z,13.90
2023-03-26T19:42:43.111Z,15.43
2023-03-26T19:45:29.027Z,14.07
2023-03-26T19:48:12.120Z,11.65
2023-03-26T19:50:55.857Z,11.60
2023-03-26T19:53:38.240Z,12.52
2023-03-26T19:56:28.584Z,11.55
2023-03-26T19:59:17.664Z,12.15
2023-03-26T20:01:48.127Z,12.25
2023-03-26T20:04:19.052Z,12.13
2023-03-26T20:06:51.497Z,13.43
2023-03-26T20:09:21.810Z,14.32
2023-03-26T20:11:54.881Z,12.83
2023-03-26T20:14:28.279Z,15.30
2023-03-26T20:16:59.281Z,15.30
2023-03-26T20:19:30.818Z,13.20
2023-03-26T20:22:01.378Z,12.15
2023-03-26T20:24:32.824Z,12.60
2023-03-26T20:27:21.765Z,11.70
2023-03-26T20:29:52.094Z,11.80
2023-03-26T20:32:27.405Z,13.05
2023-03-26T20:34:57.939Z,12.73
2023-03-26T20:37:28.757Z,12.00
2023-03-26T20:39:59.030Z,13.18
2023-03-26T20:42:29.679Z,12.57
2023-03-26T20:45:00.282Z,12.48
2023-03-26T20:47:30.545Z,11.23
2023-03-26T20:50:20.718Z,12.57
2023-03-26T20:52:51.609Z,11.77
2023-03-26T20:55:28.365Z,12.90
2023-03-26T20:57:58.624Z,12.13
2023-03-26T21:00:28.947Z,13.60
2023-03-26T21:03:01.010Z,11.70
2023-03-26T21:05:32.491Z,11.55
2023-03-26T21:08:22.571Z,12.95
2023-03-26T21:10:53.826Z,11.95
2023-03-26T21:16:05.839Z,11.93
2023-03-26T21:18:36.925Z,13.00
2023-03-26T21:21:52.045Z,12.20
2023-03-26T21:24:38.954Z,12.77
2023-03-26T21:27:19.303Z,12.93
2023-03-26T21:29:50.086Z,12.18
2023-03-26T21:32:20.509Z,12.80
2023-03-26T21:34:58.820Z,11.27
2023-03-26T21:37:30.582Z,11.40
2023-03-26T21:40:03.082Z,12.05
2023-03-26T21:42:33.761Z,13.18
2023-03-26T21:45:04.286Z,12.70
2023-03-26T21:47:35.963Z,15.17
2023-03-26T21:50:25.966Z,13.90
2023-03-26T21:52:56.610Z,12.98
2023-03-26T21:55:28.259Z,15.57
2023-03-26T21:58:34.937Z,13.13
2023-03-26T22:01:30.151Z,13.73
2023-03-26T22:04:07.269Z,14.80
2023-03-26T22:06:57.392Z,11.65
2023-03-26T22:12:04.571Z,13.00
2023-03-26T22:14:36.120Z,11.75
2023-03-26T22:17:07.838Z,12.32
2023-03-26T22:19:38.376Z,12.10
2023-03-26T22:22:08.673Z,13.23
2023-03-26T22:24:40.007Z,13.48
2023-03-26T22:29:57.721Z,12.48
2023-03-26T22:35:14.924Z,11.75
2023-03-26T22:37:45.582Z,14.10
2023-03-26T22:40:17.144Z,15.88
2023-03-26T22:45:32.963Z,13.68
2023-03-26T22:48:22.188Z,13.25
2023-03-26T22:51:03.941Z,12.13
2023-03-26T22:53:57.068Z,14.23
2023-03-26T22:56:27.787Z,19.88
2023-03-26T22:58:58.203Z,15.98
2023-03-26T23:01:28.673Z,16.73
2023-03-26T23:03:59.036Z,18.13
2023-03-26T23:06:29.290Z,16.98
2023-03-26T23:09:00.343Z,15.50
2023-03-26T23:14:18.023Z,14.43
2023-03-26T23:17:07.626Z,15.52
2023-03-26T23:19:39.465Z,18.52
2023-03-26T23:22:11.105Z,13.82
2023-03-26T23:24:41.869Z,17.08
2023-03-26T23:27:13.161Z,13.88
2023-03-26T23:29:44.626Z,15.77
2023-03-26T23:32:23.783Z,15.07
2023-03-26T23:34:55.328Z,15.80
2023-03-26T23:37:25.891Z,13.85
2023-03-26T23:39:56.197Z,14.30
2023-03-26T23:42:28.292Z,19.27
2023-03-26T23:45:00.341Z,14.40
2023-03-26T23:47:36.591Z,17.45
2023-03-26T23:50:09.573Z,15.70
2023-03-26T23:55:25.612Z,13.75
2023-03-26T23:58:13.923Z,14.15
